Time;durP1;ratioP1;P1;durP2;ratioP2;P2;SDS_P1;SDS_P2;PMS_P1;PMS_P2;Temp;Humidity;BMP_temperature;BMP_pressure;BME280_temperature;BME280_humidity;BME280_pressure;Samples;Min_cycle;Max_cycle;Signal;HPM_P1;HPM_P2
2023/08/27 00:00:37;;;;;;;4.95;2.20;;;;;;;13.41;100.00;100964.22;4909793;29;20035;-60
2023/08/27 00:03:03;;;;;;;3.03;2.10;;;;;;;13.44;100.00;100961.50;4899798;29;20123;-60
2023/08/27 00:05:53;;;;;;;3.17;2.00;;;;;;;13.51;100.00;100952.56;4919492;29;20142;-60
2023/08/27 00:08:19;;;;;;;;;;;;;;;13.58;100.00;100952.47;4907111;29;20040;-60
2023/08/27 00:10:45;;;;;;;2.45;2.25;;;;;;;13.52;100.00;100954.31;4894077;29;20025;-60
2023/08/27 00:13:10;;;;;;;3.83;2.55;;;;;;;13.55;100.00;100952.50;4898662;29;20120;-60
2023/08/27 00:15:36;;;;;;;2.60;2.30;;;;;;;13.51;100.00;100944.66;4896788;29;20091;-60
2023/08/27 00:18:02;;;;;;;2.67;2.22;;;;;;;13.51;100.00;100956.97;4881538;29;20047;-60
2023/08/27 00:20:27;;;;;;;3.80;2.42;;;;;;;13.51;100.00;100949.94;4897467;29;20053;-60
2023/08/27 00:22:57;;;;;;;4.80;2.67;;;;;;;13.46;100.00;100938.66;4897737;29;20039;-61
2023/08/27 00:25:22;;;;;;;3.87;2.70;;;;;;;13.45;100.00;100933.44;4921472;29;20066;-60
2023/08/27 00:27:48;;;;;;;5.05;2.97;;;;;;;13.39;100.00;100921.28;4935229;29;20035;-60
2023/08/27 00:30:13;;;;;;;3.28;2.30;;;;;;;13.36;100.00;100921.34;4917573;29;20039;-61
2023/08/27 00:32:39;;;;;;;5.05;2.53;;;;;;;13.30;100.00;100916.16;4933856;29;20954;-61
2023/08/27 00:35:05;;;;;;;3.20;2.15;;;;;;;13.24;100.00;100895.25;4920417;29;20037;-61
2023/08/27 00:37:31;;;;;;;2.80;2.22;;;;;;;13.16;100.00;100895.44;4902778;29;20058;-60
2023/08/27 00:39:56;;;;;;;3.00;2.35;;;;;;;13.09;100.00;100876.28;4933992;29;20345;-60
2023/08/27 00:42:24;;;;;;;4.85;2.83;;;;;;;13.05;100.00;100868.47;4910777;29;20046;-60
2023/08/27 00:44:49;;;;;;;2.80;2.10;;;;;;;13.00;100.00;100865.94;4930656;29;20094;-60
2023/08/27 00:47:16;;;;;;;4.57;2.22;;;;;;;12.97;100.00;100869.50;4902565;29;20480;-61
2023/08/27 00:49:42;;;;;;;4.40;2.78;;;;;;;12.97;100.00;100871.25;4916945;29;20032;-60
2023/08/27 00:52:09;;;;;;;5.78;2.15;;;;;;;12.95;100.00;100859.91;4916035;29;20042;-61
2023/08/27 00:54:37;;;;;;;4.05;2.50;;;;;;;12.98;100.00;100857.22;4918591;29;20059;-62
2023/08/27 00:57:05;;;;;;;3.10;2.17;;;;;;;13.03;100.00;100850.09;4949436;29;20483;-60
2023/08/27 00:59:31;;;;;;;4.28;2.47;;;;;;;12.97;100.00;100859.00;4923064;29;20387;-61
2023/08/27 01:01:57;;;;;;;3.55;2.22;;;;;;;12.92;100.00;100857.34;4916182;29;20031;-61
2023/08/27 01:04:22;;;;;;;2.72;2.15;;;;;;;12.99;100.00;100848.44;4914534;29;20028;-61
2023/08/27 01:06:51;;;;;;;3.42;2.10;;;;;;;12.89;100.00;100844.28;4921293;29;20569;-60
2023/08/27 01:09:21;;;;;;;6.25;2.50;;;;;;;12.96;100.00;100853.78;5152221;23;20059;-61
2023/08/27 01:11:59;;;;;;;2.67;1.85;;;;;;;12.95;100.00;100841.50;4946265;29;20035;-61
2023/08/27 01:14:53;;;;;;;3.15;2.10;;;;;;;13.03;100.00;100852.75;4943386;28;20027;-60
2023/08/27 01:17:22;;;;;;;2.72;2.00;;;;;;;12.92;100.00;100844.22;4938114;28;20077;-61
2023/08/27 01:19:49;;;;;;;3.55;2.13;;;;;;;12.89;100.00;100841.66;4921408;29;20748;-61
2023/08/27 01:22:15;;;;;;;3.45;2.30;;;;;;;12.91;100.00;100845.09;4941925;29;20050;-61
2023/08/27 01:24:40;;;;;;;4.75;2.00;;;;;;;12.80;100.00;100838.31;4898280;29;20047;-61
2023/08/27 01:27:11;;;;;;;4.15;2.17;;;;;;;13.00;100.00;100835.25;4926205;29;20046;-61
2023/08/27 01:34:48;;;;;;;2.90;2.13;;;;;;;12.88;100.00;100830.25;2874579;26;20482;-61
2023/08/27 01:42:30;;;;;;;2.83;1.80;;;;;;;12.85;100.00;100848.72;5089085;23;20059;-61
2023/08/27 01:44:55;;;;;;;2.65;1.80;;;;;;;12.80;100.00;100838.31;4905116;28;20054;-61
2023/08/27 01:47:21;;;;;;;3.13;1.83;;;;;;;12.71;100.00;100838.47;4920447;29;20027;-61
2023/08/27 01:49:49;;;;;;;2.55;1.73;;;;;;;12.73;100.00;100847.22;4931117;29;20033;-61
2023/08/27 01:52:14;;;;;;;4.30;2.15;;;;;;;12.74;100.00;100846.34;4939794;29;20170;-61
2023/08/27 01:54:55;;;;;;;5.15;2.10;;;;;;;12.64;100.00;100844.75;4929117;28;20746;-61
2023/08/27 01:57:25;;;;;;;2.88;2.03;;;;;;;12.59;100.00;100836.13;4927180;28;20506;-61
2023/08/27 02:00:08;;;;;;;6.13;2.58;;;;;;;12.55;100.00;100840.56;4937798;29;20035;-61
2023/08/27 02:02:38;;;;;;;3.50;2.08;;;;;;;12.50;100.00;100834.53;4953728;28;21025;-61
2023/08/27 02:05:05;;;;;;;2.13;1.80;;;;;;;12.58;100.00;100829.97;4933654;29;20150;-61
2023/08/27 02:07:33;;;;;;;3.00;2.20;;;;;;;12.40;100.00;100820.72;4954654;28;20051;-61
2023/08/27 02:09:59;;;;;;;2.45;2.10;;;;;;;12.36;100.00;100829.56;4945988;28;20031;-61
2023/08/27 02:12:25;;;;;;;3.50;2.08;;;;;;;12.31;100.00;100828.75;4943486;29;20043;-61
2023/08/27 02:14:58;;;;;;;3.08;2.08;;;;;;;12.42;100.00;100826.78;4938756;29;20441;-60
2023/08/27 02:17:35;;;;;;;5.60;2.60;;;;;;;12.37;100.00;100835.66;4941858;29;20031;-60
2023/08/27 02:20:09;;;;;;;2.45;2.25;;;;;;;12.34;100.00;100830.47;4908464;29;20083;-60
2023/08/27 02:22:43;;;;;;;3.13;2.30;;;;;;;12.30;100.00;100821.78;4935848;28;20131;-60
2023/08/27 02:25:19;;;;;;;3.90;2.05;;;;;;;12.32;100.00;100808.63;4921328;28;20043;-60
2023/08/27 02:27:54;;;;;;;2.97;2.15;;;;;;;12.39;100.00;100811.09;4937307;29;20031;-60
2023/08/27 02:30:20;;;;;;;3.13;2.10;;;;;;;12.48;100.00;100808.28;4921547;29;20463;-60
2023/08/27 02:32:45;;;;;;;2.17;1.95;;;;;;;12.46;100.00;100817.94;4928443;28;20027;-60
2023/08/27 02:35:11;;;;;;;3.85;2.30;;;;;;;12.46;100.00;100825.84;4924517;28;20036;-60
2023/08/27 02:37:36;;;;;;;3.35;2.25;;;;;;;12.56;100.00;100828.31;4900933;29;20039;-60
2023/08/27 02:40:03;;;;;;;2.50;2.28;;;;;;;12.61;100.00;100829.06;4914633;28;20042;-60
2023/08/27 02:42:28;;;;;;;6.43;3.10;;;;;;;12.68;100.00;100828.03;4936426;29;20043;-60
2023/08/27 02:44:57;;;;;;;6.20;3.33;;;;;;;12.72;100.00;100820.97;4915455;28;20130;-60
2023/08/27 02:47:23;;;;;;;5.60;2.92;;;;;;;12.72;100.00;100824.44;4934913;29;20046;-60
2023/08/27 02:49:49;;;;;;;7.25;3.50;;;;;;;12.74;100.00;100824.41;4917738;28;20028;-60
2023/08/27 02:52:15;;;;;;;5.90;3.88;;;;;;;12.75;100.00;100819.13;4926123;28;20026;-60
2023/08/27 02:54:41;;;;;;;5.35;3.63;;;;;;;12.78;100.00;100828.72;4942852;28;20019;-60
2023/08/27 02:57:06;;;;;;;6.35;3.88;;;;;;;12.83;100.00;100842.66;4919053;29;20550;-60
2023/08/27 02:59:32;;;;;;;6.43;4.05;;;;;;;12.85;100.00;100845.25;4935918;29;20035;-61
2023/08/27 03:01:58;;;;;;;11.93;4.65;;;;;;;12.81;100.00;100845.31;4918886;29;20058;-61
2023/08/27 03:04:23;;;;;;;7.00;4.32;;;;;;;12.79;100.00;100840.97;4914677;28;20032;-60
2023/08/27 03:06:49;;;;;;;7.60;4.80;;;;;;;12.78;100.00;100834.81;4907299;29;20039;-61
2023/08/27 03:09:15;;;;;;;6.00;4.15;;;;;;;12.81;100.00;100837.41;4935427;28;20027;-60
2023/08/27 03:11:40;;;;;;;7.65;4.50;;;;;;;12.77;100.00;100832.22;4920248;29;20040;-60
2023/08/27 03:14:13;;;;;;;5.72;3.45;;;;;;;12.78;100.00;100839.22;4917537;28;20054;-60
2023/08/27 03:16:54;;;;;;;4.88;3.45;;;;;;;12.80;100.00;100822.53;4946676;29;20024;-60
2023/08/27 03:19:19;;;;;;;5.13;3.63;;;;;;;12.87;100.00;100827.66;4923828;28;20085;-60
2023/08/27 03:21:44;;;;;;;3.70;3.08;;;;;;;12.93;100.00;100831.03;4925880;29;20137;-60
2023/08/27 03:24:15;;;;;;;6.20;3.42;;;;;;;12.97;100.00;100829.19;4923452;28;20422;-60
2023/08/27 03:26:41;;;;;;;6.40;3.30;;;;;;;12.89;100.00;100836.38;4933119;29;20400;-60
2023/08/27 03:29:09;;;;;;;5.10;3.33;;;;;;;12.94;100.00;100850.28;4941450;28;20529;-60
2023/08/27 03:31:37;;;;;;;5.22;3.50;;;;;;;12.86;100.00;100849.56;4913924;29;20205;-60
2023/08/27 03:34:02;;;;;;;4.70;3.03;;;;;;;12.89;100.00;100846.91;4906990;28;20032;-61
2023/08/27 03:36:28;;;;;;;6.18;3.78;;;;;;;12.86;100.00;100847.84;4922196;29;20545;-61
2023/08/27 03:38:54;;;;;;;5.72;3.60;;;;;;;12.88;100.00;100855.69;4934773;29;20035;-61
2023/08/27 03:41:20;;;;;;;4.97;3.28;;;;;;;12.85;100.00;100853.13;4927661;29;20043;-61
2023/08/27 03:43:45;;;;;;;5.18;3.35;;;;;;;12.81;100.00;100855.81;4932831;29;20178;-62
2023/08/27 03:46:17;;;;;;;6.82;3.58;;;;;;;12.81;100.00;100857.56;4913806;29;20063;-62
2023/08/27 03:48:43;;;;;;;5.32;3.35;;;;;;;12.82;100.00;100852.28;4932285;29;20514;-61
2023/08/27 04:25:32;;;;;;;5.63;3.50;;;;;;;12.97;100.00;100806.38;5206629;23;20051;-62
2023/08/27 04:27:57;;;;;;;5.10;3.60;;;;;;;12.98;100.00;100812.50;4934500;29;20507;-62
2023/08/27 04:30:23;;;;;;;4.10;3.67;;;;;;;13.13;100.00;100824.44;4917243;29;20082;-62
2023/08/27 04:32:49;;;;;;;4.45;3.53;;;;;;;13.01;100.00;100815.06;4903604;28;20439;-62
2023/08/27 04:35:14;;;;;;;7.22;3.28;;;;;;;13.00;100.00;100823.84;4904856;29;20040;-61
2023/08/27 04:37:40;;;;;;;7.35;3.75;;;;;;;12.93;100.00;100814.34;4912777;29;20039;-62
2023/08/27 04:40:06;;;;;;;5.05;3.63;;;;;;;12.97;100.00;100826.53;4928010;29;20027;-62
2023/08/27 04:42:32;;;;;;;5.65;3.55;;;;;;;13.07;100.00;100817.53;4917850;29;20041;-61
2023/08/27 04:44:57;;;;;;;5.10;3.67;;;;;;;12.95;100.00;100815.22;4912920;29;20024;-61
2023/08/27 04:47:23;;;;;;;5.72;3.35;;;;;;;12.98;100.00;100820.41;4883998;29;20040;-61
2023/08/27 04:49:49;;;;;;;5.55;3.08;;;;;;;12.90;100.00;100819.69;4916246;29;20039;-60
2023/08/27 04:52:14;;;;;;;4.40;3.25;;;;;;;12.82;100.00;100825.97;4901700;29;20031;-60
2023/08/27 04:54:40;;;;;;;7.35;3.90;;;;;;;12.78;100.00;100826.94;4900147;29;20392;-62
2023/08/27 04:57:07;;;;;;;5.35;3.13;;;;;;;12.73;100.00;100830.56;4897641;29;20036;-61
2023/08/27 04:59:32;;;;;;;4.97;3.08;;;;;;;12.67;100.00;100821.06;4914163;29;20457;-62
2023/08/27 05:01:59;;;;;;;7.22;4.10;;;;;;;12.64;100.00;100827.25;4907624;29;20137;-61
2023/08/27 05:04:28;;;;;;;5.47;3.30;;;;;;;12.61;100.00;100827.31;4898407;29;20038;-61
2023/08/27 05:06:53;;;;;;;7.07;3.78;;;;;;;12.58;100.00;100826.50;4930472;29;20028;-60
2023/08/27 05:09:26;;;;;;;5.32;3.53;;;;;;;12.62;100.00;100836.91;4879974;29;20548;-62
2023/08/27 05:12:09;;;;;;;5.15;3.70;;;;;;;12.60;100.00;100836.09;4923921;29;20195;-61
2023/08/27 05:14:36;;;;;;;4.85;3.55;;;;;;;12.57;100.00;100835.28;4926605;29;20106;-61
2023/08/27 05:17:04;;;;;;;6.88;3.90;;;;;;;12.58;100.00;100837.00;4928443;29;20056;-61
2023/08/27 05:19:29;;;;;;;6.35;4.00;;;;;;;12.58;100.00;100831.75;4904009;29;20148;-61
2023/08/27 05:21:55;;;;;;;6.38;4.15;;;;;;;12.58;100.00;100827.34;4897877;29;20036;-60
2023/08/27 05:24:20;;;;;;;6.32;3.85;;;;;;;12.61;100.00;100843.09;4885625;29;20028;-61
2023/08/27 05:26:46;;;;;;;6.93;3.95;;;;;;;12.59;100.00;100833.50;4900374;29;20038;-61
2023/08/27 05:29:13;;;;;;;6.28;3.92;;;;;;;12.59;100.00;100841.38;4931000;29;20051;-62
2023/08/27 05:31:39;;;;;;;6.63;3.85;;;;;;;12.59;100.00;100836.97;4885830;29;20044;-61
2023/08/27 05:34:04;;;;;;;7.80;4.32;;;;;;;12.60;100.00;100836.09;4894870;29;20040;-61
2023/08/27 05:36:30;;;;;;;6.40;3.95;;;;;;;12.60;100.00;100829.97;4884620;29;20451;-61
2023/08/27 05:38:57;;;;;;;6.97;4.07;;;;;;;12.58;100.00;100832.59;4912590;29;20027;-61
2023/08/27 05:41:22;;;;;;;5.82;3.70;;;;;;;12.63;100.00;100832.53;4897182;29;20047;-61
2023/08/27 05:43:49;;;;;;;7.75;4.25;;;;;;;12.68;100.00;100837.69;4896145;29;20035;-61
2023/08/27 05:46:20;;;;;;;5.82;3.88;;;;;;;12.72;100.00;100832.34;4928844;29;20099;-60
2023/08/27 05:48:46;;;;;;;6.15;3.90;;;;;;;12.78;100.00;100829.56;4929899;29;20032;-60
2023/08/27 05:51:11;;;;;;;9.35;4.30;;;;;;;12.83;100.00;100834.75;4943634;29;20117;-61
2023/08/27 05:53:37;;;;;;;8.20;4.07;;;;;;;12.89;100.00;100825.88;4919128;29;20036;-60
2023/08/27 05:56:03;;;;;;;6.30;3.95;;;;;;;12.92;100.00;100823.16;4918811;29;20075;-61
2023/08/27 05:58:29;;;;;;;5.35;4.18;;;;;;;12.95;100.00;100820.47;4903499;29;20035;-61
2023/08/27 06:00:54;;;;;;;5.32;3.47;;;;;;;13.01;100.00;100825.59;4919509;29;20039;-61
2023/08/27 06:03:21;;;;;;;7.03;4.30;;;;;;;13.11;100.00;100835.00;4917424;29;20036;-61
2023/08/27 06:05:47;;;;;;;6.15;4.55;;;;;;;13.12;100.00;100831.47;4934630;29;20185;-61
2023/08/27 06:08:12;;;;;;;6.05;4.40;;;;;;;13.15;100.00;100836.66;4894060;29;20484;-61
2023/08/27 06:10:37;;;;;;;7.00;4.72;;;;;;;13.15;100.00;100817.38;4920589;29;20039;-61
2023/08/27 06:13:03;;;;;;;5.55;4.03;;;;;;;13.11;100.00;100821.84;4895117;29;20078;-61
2023/08/27 06:16:10;;;;;;;8.68;4.45;;;;;;;13.21;100.00;100821.66;4919688;29;20039;-60
2023/08/27 06:18:35;;;;;;;7.47;4.50;;;;;;;13.44;100.00;100811.47;4913450;29;20039;-60
2023/08/27 06:21:01;;;;;;;6.13;4.03;;;;;;;13.80;100.00;100814.09;4900490;29;20036;-61
2023/08/27 06:23:26;;;;;;;4.47;3.75;;;;;;;14.09;100.00;100816.88;4917968;29;20036;-61
2023/08/27 06:25:52;;;;;;;4.32;3.65;;;;;;;14.37;100.00;100807.28;4919660;29;20087;-61
2023/08/27 06:28:17;;;;;;;5.68;3.90;;;;;;;14.86;100.00;100815.59;4886927;29;20035;-61
2023/08/27 06:30:43;;;;;;;3.97;3.50;;;;;;;15.10;100.00;100813.13;4905210;29;20067;-61
2023/08/27 06:33:11;;;;;;;4.03;3.63;;;;;;;15.22;100.00;100818.00;4914921;29;20044;-61
2023/08/27 06:35:37;;;;;;;4.55;2.83;;;;;;;15.39;100.00;100817.47;4889750;29;20039;-61
2023/08/27 06:38:03;;;;;;;4.13;3.20;;;;;;;15.00;100.00;100816.97;4920175;29;20038;-61
2023/08/27 06:40:29;;;;;;;3.90;2.92;;;;;;;14.86;100.00;100815.59;4903023;29;20511;-61
2023/08/27 06:42:56;;;;;;;4.15;2.63;;;;;;;14.76;100.00;100827.31;4901930;29;20106;-61
2023/08/27 06:45:21;;;;;;;5.10;3.22;;;;;;;15.23;100.00;100813.59;4936017;29;20104;-61
2023/08/27 06:48:27;;;;;;;5.93;3.20;;;;;;;15.63;100.00;100816.72;4895739;29;20086;-61
2023/08/27 06:50:53;;;;;;;5.13;2.90;;;;;;;15.91;100.00;100809.59;4934576;29;20173;-60
2023/08/27 06:53:20;;;;;;;4.63;2.85;;;;;;;16.07;100.00;100815.22;4883651;29;20037;-61
2023/08/27 06:55:46;;;;;;;4.32;3.03;;;;;;;16.03;99.45;100815.38;4920628;29;20519;-61
2023/08/27 06:58:11;;;;;;;4.20;2.90;;;;;;;16.06;99.59;100816.16;4884028;29;20039;-61
2023/08/27 07:00:39;;;;;;;5.03;3.22;;;;;;;16.35;100.00;100823.94;4918580;29;20031;-60
2023/08/27 07:03:06;;;;;;;4.15;2.88;;;;;;;16.16;98.93;100811.41;4934070;29;20059;-60
2023/08/27 07:05:33;;;;;;;4.20;2.72;;;;;;;16.39;99.76;100817.63;4921527;29;20047;-60
2023/08/27 07:08:08;;;;;;;6.32;2.92;;;;;;;16.43;95.85;100819.25;4921021;29;20440;-59
2023/08/27 07:10:38;;;;;;;5.57;2.70;;;;;;;16.66;96.79;100817.53;4906248;29;20746;-59
2023/08/27 07:13:04;;;;;;;;;;;;;;;16.72;97.64;100823.47;4922000;29;20047;-60
2023/08/27 07:15:30;;;;;;;7.30;3.90;;;;;;;16.94;96.98;100826.19;4918205;29;19927;-60
2023/08/27 07:17:55;;;;;;;5.65;3.33;;;;;;;17.03;96.49;100822.31;4911594;29;20111;-60
2023/08/27 07:20:22;;;;;;;4.20;2.70;;;;;;;16.91;94.87;100821.03;4925600;29;20377;-60
2023/08/27 07:22:48;;;;;;;4.72;2.75;;;;;;;16.74;94.15;100816.34;4915664;29;20028;-60
2023/08/27 07:25:13;;;;;;;6.07;3.60;;;;;;;17.38;97.73;100819.19;4923859;29;20551;-60
2023/08/27 07:27:40;;;;;;;4.47;2.90;;;;;;;16.92;93.18;100825.41;4916761;29;20044;-60
2023/08/27 07:30:06;;;;;;;7.28;3.58;;;;;;;17.01;93.78;100828.59;4930023;29;20027;-60
2023/08/27 07:32:31;;;;;;;5.57;3.33;;;;;;;16.80;93.63;100824.03;4896244;29;20468;-60
2023/08/27 07:34:57;;;;;;;5.97;3.25;;;;;;;17.37;96.32;100823.66;4931755;29;20082;-60
2023/08/27 07:37:23;;;;;;;8.68;3.65;;;;;;;17.25;92.07;100829.41;4927789;29;20123;-60
2023/08/27 07:40:03;;;;;;;6.18;3.80;;;;;;;17.88;95.63;100832.13;4917936;29;20039;-60
2023/08/27 07:42:28;;;;;;;7.18;3.58;;;;;;;17.77;90.18;100837.00;4916425;29;20518;-60
2023/08/27 07:44:56;;;;;;;5.22;3.30;;;;;;;17.58;88.69;100840.44;4933273;29;20036;-60
2023/08/27 07:47:21;;;;;;;6.35;3.40;;;;;;;17.46;88.97;100833.00;4894884;29;20040;-61
2023/08/27 07:50:09;;;;;;;5.63;3.70;;;;;;;17.37;90.02;100828.94;4893734;29;20079;-61
2023/08/27 07:52:43;;;;;;;7.30;3.85;;;;;;;17.27;90.46;100827.59;4911156;29;20058;-61
2023/08/27 07:55:19;;;;;;;7.15;3.72;;;;;;;17.20;90.13;100815.50;4894439;29;20044;-61
2023/08/27 07:57:46;;;;;;;7.00;3.53;;;;;;;17.38;89.82;100813.91;4912123;29;20051;-61
2023/08/27 08:00:13;;;;;;;7.25;3.85;;;;;;;17.64;89.82;100811.03;4861577;29;20032;-60
2023/08/27 08:02:40;;;;;;;5.97;3.78;;;;;;;17.92;92.13;100812.56;4902115;29;20047;-60
2023/08/27 08:05:06;;;;;;;5.63;3.60;;;;;;;17.96;89.87;100814.16;4876823;29;20032;-61
2023/08/27 08:07:33;;;;;;;6.72;3.05;;;;;;;17.66;86.25;100814.47;4876190;29;20044;-61
2023/08/27 08:09:58;;;;;;;5.70;3.03;;;;;;;17.86;87.19;100807.50;4864834;29;20040;-60
2023/08/27 08:12:24;;;;;;;6.47;3.65;;;;;;;17.93;86.47;100805.44;4882096;29;20055;-61
2023/08/27 08:14:49;;;;;;;6.72;3.47;;;;;;;17.92;87.34;100809.91;4879755;29;20032;-61
2023/08/27 08:17:18;;;;;;;6.13;3.13;;;;;;;17.97;85.43;100813.22;4907649;29;20091;-61
2023/08/27 08:19:43;;;;;;;9.45;3.45;;;;;;;17.97;86.59;100813.22;4900649;29;20024;-61
2023/08/27 08:22:09;;;;;;;7.35;3.38;;;;;;;17.88;85.69;100815.38;4899743;29;20060;-61
2023/08/27 08:24:34;;;;;;;5.55;3.10;;;;;;;17.91;85.45;100815.28;4885006;29;20046;-61
2023/08/27 08:27:02;;;;;;;5.70;3.00;;;;;;;18.06;86.03;100817.28;4879648;29;20047;-61
2023/08/27 08:29:31;;;;;;;4.68;2.47;;;;;;;18.06;82.75;100827.00;4898518;29;20166;-62
2023/08/27 08:31:58;;;;;;;6.90;3.03;;;;;;;17.94;83.90;100829.28;4913354;29;20044;-61
2023/08/27 08:34:23;;;;;;;6.95;2.92;;;;;;;18.04;85.32;100834.16;4875483;29;20031;-60
2023/08/27 08:36:49;;;;;;;7.97;3.20;;;;;;;18.22;86.44;100828.06;4931737;29;20126;-60
2023/08/27 08:39:14;;;;;;;6.60;3.30;;;;;;;17.94;82.45;100829.28;4881947;29;20369;-60
2023/08/27 08:41:43;;;;;;;5.40;3.03;;;;;;;17.77;81.64;100829.06;4901415;29;20134;-60
2023/08/27 08:44:28;;;;;;;6.43;3.10;;;;;;;17.78;82.85;100833.44;4921197;29;20023;-60
2023/08/27 08:46:54;;;;;;;6.38;2.88;;;;;;;17.58;83.07;100842.22;4922707;29;20032;-60
2023/08/27 08:49:22;;;;;;;7.25;3.35;;;;;;;17.49;82.07;100835.53;4929541;29;20091;-61
2023/08/27 08:51:56;;;;;;;6.68;3.10;;;;;;;17.47;83.00;100834.72;4917527;29;20028;-60
2023/08/27 08:54:26;;;;;;;6.75;2.97;;;;;;;17.60;83.22;100835.94;4935898;29;20028;-61
2023/08/27 08:56:54;;;;;;;6.78;3.20;;;;;;;17.59;80.65;100828.06;4919313;29;20032;-60
2023/08/27 08:59:22;;;;;;;7.00;3.25;;;;;;;17.66;81.89;100833.03;4916949;29;20035;-60
2023/08/27 09:01:48;;;;;;;5.88;3.47;;;;;;;17.87;81.89;100818.94;4932295;29;20027;-61
2023/08/27 09:04:15;;;;;;;10.48;3.33;;;;;;;17.81;82.26;100820.94;4912168;29;20127;-60
2023/08/27 09:06:42;;;;;;;5.55;2.63;;;;;;;17.75;79.33;100821.19;4917619;29;20567;-60
2023/08/27 09:09:10;;;;;;;5.85;2.20;;;;;;;17.80;78.98;100816.56;4902688;29;20031;-61
2023/08/27 09:11:36;;;;;;;4.68;2.20;;;;;;;18.09;82.32;100810.97;4914769;29;20038;-61
2023/08/27 09:14:03;;;;;;;4.93;2.50;;;;;;;17.86;78.46;100802.19;4926768;29;20176;-61
2023/08/27 09:16:29;;;;;;;4.45;2.20;;;;;;;17.57;76.10;100806.06;4917514;29;20028;-61
2023/08/27 09:18:56;;;;;;;3.88;2.25;;;;;;;17.69;77.91;100810.00;4922831;29;20039;-60
2023/08/27 09:21:21;;;;;;;5.38;2.50;;;;;;;17.60;77.48;100798.84;4905682;29;20075;-60
2023/08/27 09:23:47;;;;;;;5.45;2.33;;;;;;;17.51;77.13;100793.06;4923883;29;20074;-60
2023/08/27 09:26:14;;;;;;;4.32;2.28;;;;;;;17.57;80.22;100798.97;4891198;29;20036;-69
2023/08/27 09:28:40;;;;;;;3.40;1.95;;;;;;;17.30;76.68;100788.59;4929075;29;20087;-62
2023/08/27 09:31:09;;;;;;;5.13;2.13;;;;;;;17.36;77.65;100790.13;4913619;29;20064;-62
2023/08/27 09:33:40;;;;;;;4.47;2.58;;;;;;;17.48;78.31;100791.41;4920326;29;20024;-60
2023/08/27 09:36:07;;;;;;;6.60;2.50;;;;;;;17.83;78.77;100783.78;4923733;29;20035;-61
2023/08/27 09:38:39;;;;;;;6.07;2.35;;;;;;;18.08;79.00;100785.38;4914619;29;20044;-61
2023/08/27 09:41:15;;;;;;;5.07;1.95;;;;;;;18.00;72.90;100789.22;4901174;29;20039;-64
2023/08/27 09:43:46;;;;;;;7.47;2.25;;;;;;;17.79;73.44;100782.19;4898776;29;20036;-61
2023/08/27 09:46:15;;;;;;;3.65;1.67;;;;;;;18.18;76.64;100784.03;4931671;29;20051;-61
2023/08/27 09:48:41;;;;;;;3.83;1.70;;;;;;;17.92;73.25;100777.25;4915759;29;20039;-60
2023/08/27 09:51:06;;;;;;;3.72;1.67;;;;;;;18.15;71.94;100768.25;4913403;29;20050;-60
2023/08/27 09:53:32;;;;;;;4.40;2.05;;;;;;;18.03;71.99;100769.69;4903162;29;20032;-60
2023/08/27 09:55:58;;;;;;;4.97;1.90;;;;;;;17.95;72.96;100756.75;4915690;29;20044;-60
2023/08/27 09:58:27;;;;;;;7.20;2.15;;;;;;;18.07;73.30;100770.38;4933930;29;20436;-61
2023/08/27 10:00:59;;;;;;;2.72;1.50;;;;;;;18.14;71.94;100769.19;4900933;29;20036;-60
2023/08/27 10:03:26;;;;;;;3.15;1.52;;;;;;;18.29;74.82;100767.66;4918168;29;20189;-61
2023/08/27 10:05:51;;;;;;;6.10;1.77;;;;;;;18.31;72.66;100771.94;4895594;29;20036;-61
2023/08/27 10:08:17;;;;;;;2.80;1.50;;;;;;;18.41;74.46;100763.56;4929978;29;20039;-60
2023/08/27 10:10:44;;;;;;;18.20;2.88;;;;;;;18.78;75.56;100768.03;4928913;29;20035;-61
2023/08/27 10:13:13;;;;;;;6.63;1.83;;;;;;;18.78;71.96;100772.50;4922188;29;20024;-60
2023/08/27 10:52:19;;;;;;;5.55;1.83;;;;;;;18.91;72.24;100786.94;5122962;27;20407;-63
2023/08/27 10:54:46;;;;;;;12.30;3.72;;;;;;;19.27;72.19;100787.88;5088784;28;20518;-63
2023/08/27 10:57:21;;;;;;;5.93;2.75;;;;;;;19.17;71.58;100790.13;5096503;28;20028;-64
2023/08/27 10:59:47;;;;;;;6.88;2.20;;;;;;;19.12;71.04;100774.41;5097482;28;20383;-64
2023/08/27 11:02:12;;;;;;;3.70;1.63;;;;;;;18.91;68.85;100776.31;5062060;28;20035;-63
2023/08/27 11:04:43;;;;;;;4.43;1.83;;;;;;;18.80;68.06;100776.78;5068550;28;20047;-64
2023/08/27 11:07:19;;;;;;;5.25;1.73;;;;;;;18.85;67.42;100771.25;5080402;28;20032;-64
2023/08/27 11:09:58;;;;;;;5.13;1.73;;;;;;;19.12;68.35;100771.75;5068431;28;20032;-63
2023/08/27 11:12:27;;;;;;;2.53;1.35;;;;;;;18.99;66.18;100766.19;5061636;28;20040;-64
2023/08/27 11:14:55;;;;;;;6.43;2.78;;;;;;;19.07;66.62;100767.59;5084064;28;20024;-64
2023/08/27 11:17:29;;;;;;;3.95;1.45;;;;;;;19.00;67.42;100769.69;5087278;28;20040;-64
2023/08/27 11:19:57;;;;;;;4.88;1.42;;;;;;;19.08;67.72;100769.31;5072971;28;20110;-64
2023/08/27 11:22:23;;;;;;;3.70;1.20;;;;;;;19.01;66.61;100779.38;5097994;28;20067;-70
2023/08/27 11:24:53;;;;;;;5.22;1.42;;;;;;;19.03;68.63;100788.97;5068071;28;20056;-70
2023/08/27 11:27:22;;;;;;;6.22;1.95;;;;;;;19.11;64.95;100793.94;5066870;28;20032;-71
2023/08/27 11:29:49;;;;;;;4.82;1.55;;;;;;;19.10;66.02;100805.50;5072226;28;20097;-70
2023/08/27 11:32:15;;;;;;;3.33;1.13;;;;;;;18.62;66.77;100815.66;5085889;28;20024;-71
2023/08/27 11:34:43;;;;;;;1.33;0.57;;;;;;;18.02;66.04;100818.31;5068833;28;20036;-65
2023/08/27 11:37:09;;;;;;;3.38;0.50;;;;;;;17.43;67.91;100825.19;5070116;28;20032;-65
2023/08/27 11:39:36;;;;;;;1.15;0.55;;;;;;;16.89;68.82;100832.59;5089662;28;20032;-65
2023/08/27 11:42:02;;;;;;;0.93;0.70;;;;;;;16.49;71.55;100847.25;5064033;28;20474;-64
2023/08/27 11:44:27;;;;;;;2.00;0.60;;;;;;;16.35;71.59;100858.31;5079985;28;20020;-64
2023/08/27 11:47:04;;;;;;;1.25;0.30;;;;;;;16.10;73.89;100843.34;5065247;28;20190;-64
2023/08/27 11:49:31;;;;;;;1.88;0.50;;;;;;;15.96;75.09;100845.59;5075091;28;20025;-64
2023/08/27 11:51:58;;;;;;;2.05;0.55;;;;;;;15.81;77.82;100842.56;5063763;28;20534;-71
2023/08/27 11:54:28;;;;;;;1.77;0.40;;;;;;;15.91;78.26;100843.97;5068106;28;20090;-71
2023/08/27 11:56:55;;;;;;;1.83;0.63;;;;;;;16.07;80.79;100828.44;5070016;28;20081;-71
2023/08/27 11:59:20;;;;;;;2.05;0.77;;;;;;;16.12;80.10;100820.38;5092728;28;20031;-73
2023/08/27 12:01:46;;;;;;;2.05;0.80;;;;;;;16.02;78.50;100819.81;5067011;28;20029;-64
2023/08/27 12:04:12;;;;;;;1.08;0.50;;;;;;;15.96;78.98;100835.03;5048416;28;20497;-64
2023/08/27 12:06:37;;;;;;;0.60;0.40;;;;;;;15.96;77.52;100837.66;5048091;28;20033;-64
2023/08/27 12:09:03;;;;;;;1.27;0.68;;;;;;;15.99;76.74;100832.25;5056056;28;20031;-64
2023/08/27 12:11:30;;;;;;;1.17;0.57;;;;;;;15.89;75.27;100850.25;5066612;28;20028;-71
2023/08/27 12:13:58;;;;;;;0.70;0.60;;;;;;;15.74;75.38;100846.28;5057854;28;20035;-72
2023/08/27 12:16:32;;;;;;;0.65;0.50;;;;;;;15.63;76.33;100856.34;5062793;28;20020;-71
2023/08/27 12:19:06;;;;;;;1.98;0.80;;;;;;;15.50;78.51;100862.03;5065791;28;20556;-71
2023/08/27 12:21:33;;;;;;;0.57;0.50;;;;;;;15.27;77.34;100869.78;5079036;28;20106;-71
2023/08/27 12:23:59;;;;;;;1.73;0.70;;;;;;;15.07;80.52;100866.84;5059135;28;20390;-70
2023/08/27 12:26:24;;;;;;;1.38;0.50;;;;;;;14.88;79.69;100885.00;5050306;28;20358;-70
2023/08/27 12:28:53;;;;;;;1.42;0.88;;;;;;;14.71;83.08;100901.31;5064467;28;20032;-70
2023/08/27 12:31:25;;;;;;;1.55;0.68;;;;;;;14.64;87.47;100914.69;5051711;28;20025;-70
2023/08/27 12:33:57;;;;;;;0.98;0.60;;;;;;;14.38;89.20;100908.34;5082001;28;20047;-69
2023/08/27 12:36:24;;;;;;;2.45;1.10;;;;;;;14.17;90.95;100896.59;5068793;28;20032;-69
2023/08/27 12:38:54;;;;;;;2.03;1.10;;;;;;;14.06;91.45;100883.69;5052450;28;20040;-76
2023/08/27 12:41:21;;;;;;;3.15;1.13;;;;;;;14.00;93.23;100871.53;5056028;28;20381;-72
2023/08/27 12:43:46;;;;;;;2.08;1.17;;;;;;;14.03;93.61;100870.59;5029097;28;20025;-73
2023/08/27 12:46:12;;;;;;;3.47;1.02;;;;;;;14.18;92.31;100862.28;5035973;28;20033;-72